sensor_id;sensor_type;location;lat;lon;timestamp;P1;durP1;ratioP1;P2;durP2;ratioP2
70806;SDS011;58882;52.170;5.386;2023-05-14T00:00:56;18.67;;;10.15;;
70806;SDS011;58882;52.170;5.386;2023-05-14T00:03:43;17.40;;;10.15;;
70806;SDS011;58882;52.170;5.386;2023-05-14T00:06:23;17.48;;;10.50;;
70806;SDS011;58882;52.170;5.386;2023-05-14T00:09:10;17.77;;;10.82;;
70806;SDS011;58882;52.170;5.386;2023-05-14T00:11:51;19.25;;;10.38;;
70806;SDS011;58882;52.170;5.386;2023-05-14T00:14:38;16.10;;;9.57;;
70806;SDS011;58882;52.170;5.386;2023-05-14T00:17:18;17.23;;;9.93;;
70806;SDS011;58882;52.170;5.386;2023-05-14T00:20:05;17.05;;;10.32;;
70806;SDS011;58882;52.170;5.386;2023-05-14T00:22:45;16.10;;;10.48;;
70806;SDS011;58882;52.170;5.386;2023-05-14T00:25:32;18.23;;;9.93;;
70806;SDS011;58882;52.170;5.386;2023-05-14T00:28:12;15.57;;;10.02;;
70806;SDS011;58882;52.170;5.386;2023-05-14T00:31:06;17.98;;;10.00;;
70806;SDS011;58882;52.170;5.386;2023-05-14T00:33:39;16.23;;;9.73;;
70806;SDS011;58882;52.170;5.386;2023-05-14T00:36:33;14.10;;;8.68;;
70806;SDS011;58882;52.170;5.386;2023-05-14T00:39:13;16.88;;;9.50;;
70806;SDS011;58882;52.170;5.386;2023-05-14T00:42:00;15.57;;;10.07;;
70806;SDS011;58882;52.170;5.386;2023-05-14T00:44:47;18.38;;;8.77;;
70806;SDS011;58882;52.170;5.386;2023-05-14T00:47:41;13.38;;;8.63;;
70806;SDS011;58882;52.170;5.386;2023-05-14T00:50:22;15.85;;;9.93;;
70806;SDS011;58882;52.170;5.386;2023-05-14T00:53:17;16.63;;;9.48;;
70806;SDS011;58882;52.170;5.386;2023-05-14T00:55:57;17.52;;;8.60;;
70806;SDS011;58882;52.170;5.386;2023-05-14T00:58:44;17.23;;;9.60;;
70806;SDS011;58882;52.170;5.386;2023-05-14T01:01:17;13.18;;;8.90;;
70806;SDS011;58882;52.170;5.386;2023-05-14T01:04:13;16.63;;;8.45;;
70806;SDS011;58882;52.170;5.386;2023-05-14T01:10:16;16.80;;;9.23;;
70806;SDS011;58882;52.170;5.386;2023-05-14T01:13:17;15.30;;;8.77;;
70806;SDS011;58882;52.170;5.386;2023-05-14T01:16:27;16.88;;;9.20;;
70806;SDS011;58882;52.170;5.386;2023-05-14T01:19:21;19.65;;;9.50;;
70806;SDS011;58882;52.170;5.386;2023-05-14T01:22:28;15.73;;;9.20;;
70806;SDS011;58882;52.170;5.386;2023-05-14T01:25:01;17.23;;;9.63;;
70806;SDS011;58882;52.170;5.386;2023-05-14T01:31:11;17.23;;;9.32;;
70806;SDS011;58882;52.170;5.386;2023-05-14T01:34:13;16.88;;;10.13;;
70806;SDS011;58882;52.170;5.386;2023-05-14T01:36:47;16.48;;;9.23;;
70806;SDS011;58882;52.170;5.386;2023-05-14T01:39:42;13.60;;;9.18;;
70806;SDS011;58882;52.170;5.386;2023-05-14T01:42:23;16.35;;;9.07;;
70806;SDS011;58882;52.170;5.386;2023-05-14T01:45:11;17.73;;;9.70;;
70806;SDS011;58882;52.170;5.386;2023-05-14T01:47:52;15.13;;;8.98;;
70806;SDS011;58882;52.170;5.386;2023-05-14T01:50:39;17.52;;;9.25;;
70806;SDS011;58882;52.170;5.386;2023-05-14T01:53:12;15.55;;;9.05;;
70806;SDS011;58882;52.170;5.386;2023-05-14T01:56:06;14.68;;;9.15;;
70806;SDS011;58882;52.170;5.386;2023-05-14T01:58:39;17.02;;;10.02;;
70806;SDS011;58882;52.170;5.386;2023-05-14T02:04:06;13.98;;;8.77;;
70806;SDS011;58882;52.170;5.386;2023-05-14T02:07:00;17.70;;;10.05;;
70806;SDS011;58882;52.170;5.386;2023-05-14T02:09:33;16.58;;;9.10;;
70806;SDS011;58882;52.170;5.386;2023-05-14T02:12:27;15.13;;;9.70;;
70806;SDS011;58882;52.170;5.386;2023-05-14T02:15:07;16.63;;;9.65;;
70806;SDS011;58882;52.170;5.386;2023-05-14T02:17:55;16.58;;;8.93;;
70806;SDS011;58882;52.170;5.386;2023-05-14T02:20:35;14.02;;;9.30;;
70806;SDS011;58882;52.170;5.386;2023-05-14T02:23:22;15.85;;;9.68;;
70806;SDS011;58882;52.170;5.386;2023-05-14T02:26:12;22.05;;;10.02;;
70806;SDS011;58882;52.170;5.386;2023-05-14T02:29:00;17.77;;;9.60;;
70806;SDS011;58882;52.170;5.386;2023-05-14T02:31:40;16.08;;;9.90;;
70806;SDS011;58882;52.170;5.386;2023-05-14T02:34:27;18.25;;;9.35;;
70806;SDS011;58882;52.170;5.386;2023-05-14T02:37:07;16.40;;;8.95;;
70806;SDS011;58882;52.170;5.386;2023-05-14T02:39:54;15.18;;;9.65;;
70806;SDS011;58882;52.170;5.386;2023-05-14T02:42:34;15.15;;;9.43;;
70806;SDS011;58882;52.170;5.386;2023-05-14T02:45:21;12.65;;;8.55;;
70806;SDS011;58882;52.170;5.386;2023-05-14T02:48:15;18.50;;;9.50;;
70806;SDS011;58882;52.170;5.386;2023-05-14T02:50:48;15.95;;;9.25;;
70806;SDS011;58882;52.170;5.386;2023-05-14T02:53:42;15.35;;;9.35;;
70806;SDS011;58882;52.170;5.386;2023-05-14T02:56:22;14.80;;;8.60;;
70806;SDS011;58882;52.170;5.386;2023-05-14T02:59:09;15.35;;;9.13;;
70806;SDS011;58882;52.170;5.386;2023-05-14T03:01:49;14.60;;;9.57;;
70806;SDS011;58882;52.170;5.386;2023-05-14T03:04:43;15.07;;;9.18;;
70806;SDS011;58882;52.170;5.386;2023-05-14T03:07:16;16.85;;;9.27;;
70806;SDS011;58882;52.170;5.386;2023-05-14T03:10:10;16.20;;;9.57;;
70806;SDS011;58882;52.170;5.386;2023-05-14T03:12:50;17.50;;;9.10;;
70806;SDS011;58882;52.170;5.386;2023-05-14T03:15:37;16.83;;;9.52;;
70806;SDS011;58882;52.170;5.386;2023-05-14T03:18:18;15.02;;;8.80;;
70806;SDS011;58882;52.170;5.386;2023-05-14T03:21:06;15.30;;;8.88;;
70806;SDS011;58882;52.170;5.386;2023-05-14T03:23:47;16.23;;;9.35;;
70806;SDS011;58882;52.170;5.386;2023-05-14T03:26:34;14.63;;;9.38;;
70806;SDS011;58882;52.170;5.386;2023-05-14T03:29:15;16.92;;;9.43;;
70806;SDS011;58882;52.170;5.386;2023-05-14T03:32:02;15.93;;;10.25;;
70806;SDS011;58882;52.170;5.386;2023-05-14T03:37:29;18.10;;;9.55;;
70806;SDS011;58882;52.170;5.386;2023-05-14T03:40:09;14.93;;;9.40;;
70806;SDS011;58882;52.170;5.386;2023-05-14T03:42:56;14.90;;;9.40;;
70806;SDS011;58882;52.170;5.386;2023-05-14T03:45:43;15.02;;;9.15;;
70806;SDS011;58882;52.170;5.386;2023-05-14T03:48:24;17.27;;;9.32;;
70806;SDS011;58882;52.170;5.386;2023-05-14T03:51:11;15.63;;;8.93;;
70806;SDS011;58882;52.170;5.386;2023-05-14T03:53:51;16.63;;;9.02;;
70806;SDS011;58882;52.170;5.386;2023-05-14T03:56:38;16.08;;;9.80;;
70806;SDS011;58882;52.170;5.386;2023-05-14T03:59:18;15.65;;;9.30;;
70806;SDS011;58882;52.170;5.386;2023-05-14T04:02:05;15.63;;;9.43;;
70806;SDS011;58882;52.170;5.386;2023-05-14T04:04:45;14.07;;;8.90;;
70806;SDS011;58882;52.170;5.386;2023-05-14T04:10:19;16.63;;;9.02;;
70806;SDS011;58882;52.170;5.386;2023-05-14T04:13:06;19.17;;;9.32;;
70806;SDS011;58882;52.170;5.386;2023-05-14T04:15:46;13.85;;;8.20;;
70806;SDS011;58882;52.170;5.386;2023-05-14T04:18:40;14.95;;;8.68;;
70806;SDS011;58882;52.170;5.386;2023-05-14T04:21:20;17.02;;;9.18;;
70806;SDS011;58882;52.170;5.386;2023-05-14T04:24:07;18.27;;;9.15;;
70806;SDS011;58882;52.170;5.386;2023-05-14T04:26:47;14.68;;;8.82;;
70806;SDS011;58882;52.170;5.386;2023-05-14T04:29:34;14.35;;;8.60;;
70806;SDS011;58882;52.170;5.386;2023-05-14T04:32:14;15.40;;;8.65;;
70806;SDS011;58882;52.170;5.386;2023-05-14T04:35:01;15.25;;;8.88;;
70806;SDS011;58882;52.170;5.386;2023-05-14T04:37:42;14.38;;;8.60;;
70806;SDS011;58882;52.170;5.386;2023-05-14T04:43:09;13.70;;;7.93;;
70806;SDS011;58882;52.170;5.386;2023-05-14T04:48:43;15.82;;;7.63;;
70806;SDS011;58882;52.170;5.386;2023-05-14T04:51:30;17.33;;;8.35;;
70806;SDS011;58882;52.170;5.386;2023-05-14T04:54:04;14.73;;;8.60;;
70806;SDS011;58882;52.170;5.386;2023-05-14T04:56:58;15.30;;;8.38;;
70806;SDS011;58882;52.170;5.386;2023-05-14T04:59:34;14.07;;;8.80;;
70806;SDS011;58882;52.170;5.386;2023-05-14T05:02:28;17.67;;;8.27;;
70806;SDS011;58882;52.170;5.386;2023-05-14T05:05:02;16.15;;;8.50;;
70806;SDS011;58882;52.170;5.386;2023-05-14T05:07:56;13.63;;;7.45;;
70806;SDS011;58882;52.170;5.386;2023-05-14T05:13:23;12.73;;;7.68;;
70806;SDS011;58882;52.170;5.386;2023-05-14T05:16:03;16.30;;;8.02;;
70806;SDS011;58882;52.170;5.386;2023-05-14T05:18:50;13.70;;;7.88;;
70806;SDS011;58882;52.170;5.386;2023-05-14T05:21:30;14.38;;;7.90;;
70806;SDS011;58882;52.170;5.386;2023-05-14T05:24:26;15.20;;;8.20;;
70806;SDS011;58882;52.170;5.386;2023-05-14T05:26:59;15.25;;;7.32;;
70806;SDS011;58882;52.170;5.386;2023-05-14T05:29:53;15.13;;;7.80;;
70806;SDS011;58882;52.170;5.386;2023-05-14T05:32:33;13.88;;;7.90;;
70806;SDS011;58882;52.170;5.386;2023-05-14T05:35:27;13.48;;;8.25;;
70806;SDS011;58882;52.170;5.386;2023-05-14T05:38:07;14.93;;;7.22;;
70806;SDS011;58882;52.170;5.386;2023-05-14T05:41:01;13.30;;;7.78;;
70806;SDS011;58882;52.170;5.386;2023-05-14T05:43:41;13.40;;;7.82;;
70806;SDS011;58882;52.170;5.386;2023-05-14T05:46:28;14.93;;;7.25;;
70806;SDS011;58882;52.170;5.386;2023-05-14T05:49:08;17.80;;;7.00;;
70806;SDS011;58882;52.170;5.386;2023-05-14T05:52:02;15.23;;;7.60;;
70806;SDS011;58882;52.170;5.386;2023-05-14T05:54:36;15.40;;;7.47;;
70806;SDS011;58882;52.170;5.386;2023-05-14T05:57:30;15.90;;;7.18;;
70806;SDS011;58882;52.170;5.386;2023-05-14T06:00:10;14.57;;;7.55;;
70806;SDS011;58882;52.170;5.386;2023-05-14T06:02:57;17.45;;;7.82;;
70806;SDS011;58882;52.170;5.386;2023-05-14T06:05:37;14.95;;;7.05;;
70806;SDS011;58882;52.170;5.386;2023-05-14T06:08:32;12.57;;;7.30;;
70806;SDS011;58882;52.170;5.386;2023-05-14T06:11:12;13.73;;;7.63;;
70806;SDS011;58882;52.170;5.386;2023-05-14T06:13:59;17.02;;;7.53;;
70806;SDS011;58882;52.170;5.386;2023-05-14T06:19:26;14.90;;;7.00;;
70806;SDS011;58882;52.170;5.386;2023-05-14T06:22:07;11.80;;;6.38;;
70806;SDS011;58882;52.170;5.386;2023-05-14T06:25:01;13.68;;;7.30;;
70806;SDS011;58882;52.170;5.386;2023-05-14T06:27:41;13.77;;;7.03;;
70806;SDS011;58882;52.170;5.386;2023-05-14T06:30:28;12.73;;;7.30;;
70806;SDS011;58882;52.170;5.386;2023-05-14T06:33:01;14.50;;;7.60;;
70806;SDS011;58882;52.170;5.386;2023-05-14T06:35:58;13.40;;;7.28;;
70806;SDS011;58882;52.170;5.386;2023-05-14T06:38:32;17.40;;;5.80;;
70806;SDS011;58882;52.170;5.386;2023-05-14T06:41:26;14.10;;;6.30;;
70806;SDS011;58882;52.170;5.386;2023-05-14T06:44:01;16.40;;;6.03;;
70806;SDS011;58882;52.170;5.386;2023-05-14T06:46:55;13.93;;;6.65;;
70806;SDS011;58882;52.170;5.386;2023-05-14T06:49:35;14.30;;;5.40;;
70806;SDS011;58882;52.170;5.386;2023-05-14T06:52:23;14.60;;;5.57;;
70806;SDS011;58882;52.170;5.386;2023-05-14T06:55:04;11.75;;;6.07;;
70806;SDS011;58882;52.170;5.386;2023-05-14T06:57:52;8.85;;;4.72;;
70806;SDS011;58882;52.170;5.386;2023-05-14T07:00:32;13.02;;;5.30;;
70806;SDS011;58882;52.170;5.386;2023-05-14T07:03:26;11.20;;;5.35;;
70806;SDS011;58882;52.170;5.386;2023-05-14T07:06:07;10.68;;;5.38;;
70806;SDS011;58882;52.170;5.386;2023-05-14T07:09:01;15.07;;;6.60;;
70806;SDS011;58882;52.170;5.386;2023-05-14T07:11:34;8.93;;;5.20;;
70806;SDS011;58882;52.170;5.386;2023-05-14T07:14:28;10.35;;;5.20;;
70806;SDS011;58882;52.170;5.386;2023-05-14T07:17:01;11.00;;;4.95;;
70806;SDS011;58882;52.170;5.386;2023-05-14T07:19:55;13.43;;;6.45;;
70806;SDS011;58882;52.170;5.386;2023-05-14T07:22:35;12.45;;;7.07;;
70806;SDS011;58882;52.170;5.386;2023-05-14T07:25:22;9.48;;;5.22;;
70806;SDS011;58882;52.170;5.386;2023-05-14T07:27:55;9.98;;;5.30;;
70806;SDS011;58882;52.170;5.386;2023-05-14T07:30:49;11.30;;;5.07;;
70806;SDS011;58882;52.170;5.386;2023-05-14T07:33:22;9.90;;;4.97;;
70806;SDS011;58882;52.170;5.386;2023-05-14T07:36:16;11.02;;;5.00;;
70806;SDS011;58882;52.170;5.386;2023-05-14T07:38:56;10.60;;;5.10;;
70806;SDS011;58882;52.170;5.386;2023-05-14T07:41:50;10.43;;;5.10;;
70806;SDS011;58882;52.170;5.386;2023-05-14T07:44:24;8.45;;;4.95;;
70806;SDS011;58882;52.170;5.386;2023-05-14T07:47:18;10.55;;;5.28;;
70806;SDS011;58882;52.170;5.386;2023-05-14T07:49:55;10.35;;;5.10;;
70806;SDS011;58882;52.170;5.386;2023-05-14T07:52:49;9.30;;;5.25;;
70806;SDS011;58882;52.170;5.386;2023-05-14T07:55:22;12.57;;;5.30;;
70806;SDS011;58882;52.170;5.386;2023-05-14T07:58:16;8.43;;;4.93;;
70806;SDS011;58882;52.170;5.386;2023-05-14T08:00:56;9.55;;;4.75;;
70806;SDS011;58882;52.170;5.386;2023-05-14T08:03:43;9.18;;;4.95;;
70806;SDS011;58882;52.170;5.386;2023-05-14T08:06:17;12.48;;;6.07;;
70806;SDS011;58882;52.170;5.386;2023-05-14T08:09:12;11.75;;;5.30;;
70806;SDS011;58882;52.170;5.386;2023-05-14T08:11:52;11.55;;;5.43;;
70806;SDS011;58882;52.170;5.386;2023-05-14T08:14:39;8.43;;;5.05;;
70806;SDS011;58882;52.170;5.386;2023-05-14T08:17:12;11.50;;;5.72;;
70806;SDS011;58882;52.170;5.386;2023-05-14T08:20:06;11.18;;;6.07;;
70806;SDS011;58882;52.170;5.386;2023-05-14T08:22:40;8.35;;;5.20;;
70806;SDS011;58882;52.170;5.386;2023-05-14T08:25:34;8.73;;;5.07;;
70806;SDS011;58882;52.170;5.386;2023-05-14T08:28:07;8.75;;;5.07;;
70806;SDS011;58882;52.170;5.386;2023-05-14T08:31:01;10.82;;;5.63;;
70806;SDS011;58882;52.170;5.386;2023-05-14T08:33:34;10.30;;;5.18;;
70806;SDS011;58882;52.170;5.386;2023-05-14T08:36:28;9.70;;;5.00;;
70806;SDS011;58882;52.170;5.386;2023-05-14T08:39:08;10.43;;;5.43;;
70806;SDS011;58882;52.170;5.386;2023-05-14T08:41:56;8.05;;;4.80;;
70806;SDS011;58882;52.170;5.386;2023-05-14T08:44:42;12.10;;;5.30;;
70806;SDS011;58882;52.170;5.386;2023-05-14T08:47:41;17.55;;;5.82;;
70806;SDS011;58882;52.170;5.386;2023-05-14T08:50:26;20.67;;;6.20;;
70806;SDS011;58882;52.170;5.386;2023-05-14T08:53:14;26.50;;;6.25;;
70806;SDS011;58882;52.170;5.386;2023-05-14T08:55:54;20.10;;;5.97;;
70806;SDS011;58882;52.170;5.386;2023-05-14T08:58:48;20.48;;;5.32;;
70806;SDS011;58882;52.170;5.386;2023-05-14T09:01:21;15.73;;;4.78;;
70806;SDS011;58882;52.170;5.386;2023-05-14T09:04:15;14.77;;;5.22;;
70806;SDS011;58882;52.170;5.386;2023-05-14T09:07:01;14.55;;;5.40;;
70806;SDS011;58882;52.170;5.386;2023-05-14T09:09:55;20.73;;;5.07;;
70806;SDS011;58882;52.170;5.386;2023-05-14T09:12:35;17.52;;;4.88;;
70806;SDS011;58882;52.170;5.386;2023-05-14T09:15:22;17.23;;;4.80;;
70806;SDS011;58882;52.170;5.386;2023-05-14T09:18:06;9.50;;;4.40;;
70806;SDS011;58882;52.170;5.386;2023-05-14T09:20:53;11.00;;;5.05;;
70806;SDS011;58882;52.170;5.386;2023-05-14T09:23:34;13.13;;;4.60;;
70806;SDS011;58882;52.170;5.386;2023-05-14T09:26:30;10.77;;;4.88;;
70806;SDS011;58882;52.170;5.386;2023-05-14T09:29:10;16.25;;;4.43;;
70806;SDS011;58882;52.170;5.386;2023-05-14T09:32:04;10.98;;;4.45;;
70806;SDS011;58882;52.170;5.386;2023-05-14T09:34:44;11.82;;;4.35;;
70806;SDS011;58882;52.170;5.386;2023-05-14T09:37:31;10.48;;;4.28;;
70806;SDS011;58882;52.170;5.386;2023-05-14T09:40:09;13.55;;;4.97;;
70806;SDS011;58882;52.170;5.386;2023-05-14T09:43:03;9.88;;;4.65;;
70806;SDS011;58882;52.170;5.386;2023-05-14T09:45:36;10.82;;;4.57;;
70806;SDS011;58882;52.170;5.386;2023-05-14T09:48:30;9.73;;;3.90;;
70806;SDS011;58882;52.170;5.386;2023-05-14T09:51:10;9.57;;;4.03;;
70806;SDS011;58882;52.170;5.386;2023-05-14T09:53:59;9.13;;;4.05;;
70806;SDS011;58882;52.170;5.386;2023-05-14T09:56:41;9.48;;;4.18;;
70806;SDS011;58882;52.170;5.386;2023-05-14T09:59:29;11.10;;;4.93;;
70806;SDS011;58882;52.170;5.386;2023-05-14T10:02:14;8.32;;;4.38;;
70806;SDS011;58882;52.170;5.386;2023-05-14T10:05:14;10.25;;;4.25;;
70806;SDS011;58882;52.170;5.386;2023-05-14T10:07:55;8.32;;;4.13;;
70806;SDS011;58882;52.170;5.386;2023-05-14T10:10:44;10.10;;;3.90;;
70806;SDS011;58882;52.170;5.386;2023-05-14T10:13:27;8.70;;;3.88;;
70806;SDS011;58882;52.170;5.386;2023-05-14T10:16:21;7.18;;;3.65;;
70806;SDS011;58882;52.170;5.386;2023-05-14T10:19:14;7.82;;;3.78;;
70806;SDS011;58882;52.170;5.386;2023-05-14T10:22:10;9.20;;;4.18;;
70806;SDS011;58882;52.170;5.386;2023-05-14T10:24:53;9.10;;;4.10;;
70806;SDS011;58882;52.170;5.386;2023-05-14T10:27:41;9.82;;;4.20;;
70806;SDS011;58882;52.170;5.386;2023-05-14T10:30:22;10.20;;;4.03;;
70806;SDS011;58882;52.170;5.386;2023-05-14T10:33:16;9.02;;;3.88;;
70806;SDS011;58882;52.170;5.386;2023-05-14T10:36:04;12.13;;;3.92;;
70806;SDS011;58882;52.170;5.386;2023-05-14T10:38:55;9.38;;;4.10;;
70806;SDS011;58882;52.170;5.386;2023-05-14T10:41:35;10.07;;;4.15;;
70806;SDS011;58882;52.170;5.386;2023-05-14T10:44:31;8.73;;;3.97;;
70806;SDS011;58882;52.170;5.386;2023-05-14T10:47:28;9.93;;;3.85;;
70806;SDS011;58882;52.170;5.386;2023-05-14T10:50:10;8.38;;;3.72;;
70806;SDS011;58882;52.170;5.386;2023-05-14T10:52:58;10.00;;;3.42;;
70806;SDS011;58882;52.170;5.386;2023-05-14T10:55:40;8.68;;;3.67;;
70806;SDS011;58882;52.170;5.386;2023-05-14T10:58:29;8.15;;;3.92;;
70806;SDS011;58882;52.170;5.386;2023-05-14T11:01:12;10.70;;;3.90;;
70806;SDS011;58882;52.170;5.386;2023-05-14T11:03:59;9.30;;;3.83;;
70806;SDS011;58882;52.170;5.386;2023-05-14T11:06:41;8.77;;;3.90;;
70806;SDS011;58882;52.170;5.386;2023-05-14T11:09:29;9.57;;;3.80;;
70806;SDS011;58882;52.170;5.386;2023-05-14T11:12:09;8.43;;;3.80;;
70806;SDS011;58882;52.170;5.386;2023-05-14T11:14:57;6.47;;;3.40;;
70806;SDS011;58882;52.170;5.386;2023-05-14T11:17:38;9.10;;;3.60;;
70806;SDS011;58882;52.170;5.386;2023-05-14T11:20:27;9.98;;;4.05;;
70806;SDS011;58882;52.170;5.386;2023-05-14T11:23:08;10.80;;;4.05;;
70806;SDS011;58882;52.170;5.386;2023-05-14T11:26:02;10.68;;;4.18;;
70806;SDS011;58882;52.170;5.386;2023-05-14T11:28:42;8.75;;;4.20;;
70806;SDS011;58882;52.170;5.386;2023-05-14T11:31:29;7.82;;;3.55;;
70806;SDS011;58882;52.170;5.386;2023-05-14T11:34:09;9.20;;;3.92;;
70806;SDS011;58882;52.170;5.386;2023-05-14T11:36:56;7.47;;;3.85;;
70806;SDS011;58882;52.170;5.386;2023-05-14T11:39:36;9.57;;;3.90;;
70806;SDS011;58882;52.170;5.386;2023-05-14T11:42:24;10.38;;;4.00;;
70806;SDS011;58882;52.170;5.386;2023-05-14T11:45:04;8.10;;;3.85;;
70806;SDS011;58882;52.170;5.386;2023-05-14T11:47:52;9.38;;;4.07;;
70806;SDS011;58882;52.170;5.386;2023-05-14T11:50:34;8.93;;;3.88;;
70806;SDS011;58882;52.170;5.386;2023-05-14T11:53:28;9.23;;;3.50;;
70806;SDS011;58882;52.170;5.386;2023-05-14T11:56:09;8.02;;;3.97;;
70806;SDS011;58882;52.170;5.386;2023-05-14T11:59:03;9.93;;;3.85;;
70806;SDS011;58882;52.170;5.386;2023-05-14T12:01:43;9.27;;;3.78;;
70806;SDS011;58882;52.170;5.386;2023-05-14T12:04:31;8.20;;;4.07;;
70806;SDS011;58882;52.170;5.386;2023-05-14T12:07:12;6.82;;;3.60;;
70806;SDS011;58882;52.170;5.386;2023-05-14T12:10:07;8.98;;;4.07;;
70806;SDS011;58882;52.170;5.386;2023-05-14T12:12:50;8.27;;;3.92;;
70806;SDS011;58882;52.170;5.386;2023-05-14T12:15:37;11.02;;;3.95;;
70806;SDS011;58882;52.170;5.386;2023-05-14T12:18:18;9.82;;;4.13;;
70806;SDS011;58882;52.170;5.386;2023-05-14T12:21:05;7.55;;;3.58;;
70806;SDS011;58882;52.170;5.386;2023-05-14T12:23:46;9.98;;;4.32;;
70806;SDS011;58882;52.170;5.386;2023-05-14T12:26:47;7.63;;;3.63;;
70806;SDS011;58882;52.170;5.386;2023-05-14T12:29:21;8.00;;;3.85;;
70806;SDS011;58882;52.170;5.386;2023-05-14T12:32:15;7.72;;;3.60;;
70806;SDS011;58882;52.170;5.386;2023-05-14T12:34:56;9.45;;;4.07;;
70806;SDS011;58882;52.170;5.386;2023-05-14T12:37:43;8.70;;;3.92;;
70806;SDS011;58882;52.170;5.386;2023-05-14T12:40:23;7.05;;;4.05;;
70806;SDS011;58882;52.170;5.386;2023-05-14T12:43:10;8.93;;;4.18;;
70806;SDS011;58882;52.170;5.386;2023-05-14T12:45:50;9.77;;;4.00;;
70806;SDS011;58882;52.170;5.386;2023-05-14T12:48:44;10.43;;;3.95;;
70806;SDS011;58882;52.170;5.386;2023-05-14T12:51:17;10.10;;;4.22;;
70806;SDS011;58882;52.170;5.386;2023-05-14T12:54:11;10.68;;;4.03;;
70806;SDS011;58882;52.170;5.386;2023-05-14T12:56:51;9.88;;;4.18;;
70806;SDS011;58882;52.170;5.386;2023-05-14T12:59:38;10.45;;;4.60;;
70806;SDS011;58882;52.170;5.386;2023-05-14T13:02:12;7.03;;;3.80;;
70806;SDS011;58882;52.170;5.386;2023-05-14T13:05:06;8.02;;;4.10;;
70806;SDS011;58882;52.170;5.386;2023-05-14T13:07:46;9.40;;;4.40;;
70806;SDS011;58882;52.170;5.386;2023-05-14T13:10:33;9.55;;;4.40;;
70806;SDS011;58882;52.170;5.386;2023-05-14T13:13:14;10.95;;;4.13;;
70806;SDS011;58882;52.170;5.386;2023-05-14T13:16:01;11.18;;;4.38;;
70806;SDS011;58882;52.170;5.386;2023-05-14T13:18:41;7.78;;;4.30;;
70806;SDS011;58882;52.170;5.386;2023-05-14T13:21:28;7.97;;;4.25;;
70806;SDS011;58882;52.170;5.386;2023-05-14T13:24:02;8.30;;;4.18;;
70806;SDS011;58882;52.170;5.386;2023-05-14T13:26:56;12.15;;;4.40;;
70806;SDS011;58882;52.170;5.386;2023-05-14T13:29:29;8.32;;;4.40;;
70806;SDS011;58882;52.170;5.386;2023-05-14T13:32:24;8.55;;;4.35;;
70806;SDS011;58882;52.170;5.386;2023-05-14T13:34:57;8.73;;;3.85;;
70806;SDS011;58882;52.170;5.386;2023-05-14T13:37:51;8.18;;;4.35;;
70806;SDS011;58882;52.170;5.386;2023-05-14T13:40:31;12.55;;;4.68;;
70806;SDS011;58882;52.170;5.386;2023-05-14T13:43:25;11.23;;;4.30;;
70806;SDS011;58882;52.170;5.386;2023-05-14T13:45:59;8.80;;;4.63;;
70806;SDS011;58882;52.170;5.386;2023-05-14T13:48:53;11.00;;;4.47;;
70806;SDS011;58882;52.170;5.386;2023-05-14T13:51:27;8.07;;;4.25;;
70806;SDS011;58882;52.170;5.386;2023-05-14T13:54:21;11.07;;;4.47;;
70806;SDS011;58882;52.170;5.386;2023-05-14T13:56:54;7.40;;;4.50;;
70806;SDS011;58882;52.170;5.386;2023-05-14T13:59:48;9.02;;;4.50;;
70806;SDS011;58882;52.170;5.386;2023-05-14T14:02:29;10.90;;;4.57;;
70806;SDS011;58882;52.170;5.386;2023-05-14T14:07:49;10.02;;;4.90;;
70806;SDS011;58882;52.170;5.386;2023-05-14T14:11:02;9.98;;;4.32;;
70806;SDS011;58882;52.170;5.386;2023-05-14T14:13:35;8.73;;;4.50;;
70806;SDS011;58882;52.170;5.386;2023-05-14T14:16:29;8.98;;;3.97;;
70806;SDS011;58882;52.170;5.386;2023-05-14T14:19:09;9.98;;;4.70;;
70806;SDS011;58882;52.170;5.386;2023-05-14T14:21:57;9.88;;;4.60;;
70806;SDS011;58882;52.170;5.386;2023-05-14T14:24:37;10.00;;;4.80;;
70806;SDS011;58882;52.170;5.386;2023-05-14T14:27:24;10.15;;;4.68;;
70806;SDS011;58882;52.170;5.386;2023-05-14T14:30:05;8.85;;;4.75;;
70806;SDS011;58882;52.170;5.386;2023-05-14T14:33:03;10.20;;;4.35;;
70806;SDS011;58882;52.170;5.386;2023-05-14T14:35:43;9.55;;;4.57;;
70806;SDS011;58882;52.170;5.386;2023-05-14T14:38:30;10.35;;;4.40;;
70806;SDS011;58882;52.170;5.386;2023-05-14T14:41:13;9.52;;;4.55;;
70806;SDS011;58882;52.170;5.386;2023-05-14T14:44:00;9.48;;;4.82;;
70806;SDS011;58882;52.170;5.386;2023-05-14T14:46:48;9.43;;;4.57;;
70806;SDS011;58882;52.170;5.386;2023-05-14T14:49:28;8.38;;;4.40;;
70806;SDS011;58882;52.170;5.386;2023-05-14T14:52:16;10.25;;;4.35;;
70806;SDS011;58882;52.170;5.386;2023-05-14T14:54:56;9.10;;;4.28;;
70806;SDS011;58882;52.170;5.386;2023-05-14T14:57:44;9.93;;;4.18;;
70806;SDS011;58882;52.170;5.386;2023-05-14T15:00:24;8.45;;;4.22;;
70806;SDS011;58882;52.170;5.386;2023-05-14T15:03:18;11.20;;;4.38;;
70806;SDS011;58882;52.170;5.386;2023-05-14T15:05:59;10.25;;;4.57;;
70806;SDS011;58882;52.170;5.386;2023-05-14T15:08:53;10.13;;;4.20;;
70806;SDS011;58882;52.170;5.386;2023-05-14T15:11:33;8.80;;;4.72;;
70806;SDS011;58882;52.170;5.386;2023-05-14T15:14:20;7.78;;;4.07;;
70806;SDS011;58882;52.170;5.386;2023-05-14T15:17:00;9.10;;;4.35;;
70806;SDS011;58882;52.170;5.386;2023-05-14T15:19:54;11.27;;;4.78;;
70806;SDS011;58882;52.170;5.386;2023-05-14T15:22:34;11.55;;;4.53;;
70806;SDS011;58882;52.170;5.386;2023-05-14T15:25:21;9.80;;;4.53;;
70806;SDS011;58882;52.170;5.386;2023-05-14T15:28:03;11.45;;;4.05;;
70806;SDS011;58882;52.170;5.386;2023-05-14T15:30:51;9.13;;;4.40;;
70806;SDS011;58882;52.170;5.386;2023-05-14T15:33:31;10.45;;;4.43;;
70806;SDS011;58882;52.170;5.386;2023-05-14T15:36:20;8.45;;;4.50;;
70806;SDS011;58882;52.170;5.386;2023-05-14T15:39:00;10.95;;;4.50;;
70806;SDS011;58882;52.170;5.386;2023-05-14T15:41:48;9.75;;;4.72;;
70806;SDS011;58882;52.170;5.386;2023-05-14T15:44:28;8.65;;;4.50;;
70806;SDS011;58882;52.170;5.386;2023-05-14T15:47:17;8.10;;;4.75;;
70806;SDS011;58882;52.170;5.386;2023-05-14T15:49:57;9.98;;;4.80;;
70806;SDS011;58882;52.170;5.386;2023-05-14T15:52:51;10.13;;;4.72;;
70806;SDS011;58882;52.170;5.386;2023-05-14T15:55:31;10.75;;;4.15;;
70806;SDS011;58882;52.170;5.386;2023-05-14T15:58:25;8.57;;;4.88;;
70806;SDS011;58882;52.170;5.386;2023-05-14T16:01:05;10.57;;;4.82;;
70806;SDS011;58882;52.170;5.386;2023-05-14T16:03:52;9.63;;;4.70;;
70806;SDS011;58882;52.170;5.386;2023-05-14T16:06:32;8.02;;;4.25;;
70806;SDS011;58882;52.170;5.386;2023-05-14T16:09:27;9.23;;;4.72;;
70806;SDS011;58882;52.170;5.386;2023-05-14T16:12:01;9.20;;;4.65;;
70806;SDS011;58882;52.170;5.386;2023-05-14T16:14:54;9.38;;;5.00;;
70806;SDS011;58882;52.170;5.386;2023-05-14T16:17:35;9.20;;;5.20;;
70806;SDS011;58882;52.170;5.386;2023-05-14T16:20:22;8.60;;;4.68;;
70806;SDS011;58882;52.170;5.386;2023-05-14T16:23:02;12.82;;;5.18;;
70806;SDS011;58882;52.170;5.386;2023-05-14T16:25:49;11.80;;;5.32;;
70806;SDS011;58882;52.170;5.386;2023-05-14T16:28:29;7.95;;;4.60;;
70806;SDS011;58882;52.170;5.386;2023-05-14T16:31:19;11.00;;;5.10;;
70806;SDS011;58882;52.170;5.386;2023-05-14T16:33:59;12.45;;;4.75;;
70806;SDS011;58882;52.170;5.386;2023-05-14T16:36:54;10.07;;;5.15;;
70806;SDS011;58882;52.170;5.386;2023-05-14T16:39:34;11.80;;;4.80;;
70806;SDS011;58882;52.170;5.386;2023-05-14T16:42:21;10.57;;;4.88;;
70806;SDS011;58882;52.170;5.386;2023-05-14T16:45:01;10.65;;;5.10;;
70806;SDS011;58882;52.170;5.386;2023-05-14T16:47:51;9.70;;;4.90;;
70806;SDS011;58882;52.170;5.386;2023-05-14T16:50:31;10.65;;;4.53;;
70806;SDS011;58882;52.170;5.386;2023-05-14T16:53:25;11.15;;;5.10;;